Flight Track Log - Related Links

Times and Time Zones

All times are in EST time to prevent confusion due to time zone crossing. See the N865JM flight status page for this flight to view local times or setup timezone preferences in your user account.

Time Position Orientation Groundspeed Altitude Reporting Facility
EST Latitude Longitude Course Direction KTS MPH feet Rate Location/Type
Sun 08:47:24 AM 38.8833 -77.4333 185° South 195 224 3,000  Level Potomac TRACON
Sun 08:48:24 AM 38.8167 -77.4333 180° South 214 246 4,900 2,659 Climbing Potomac TRACON
Sun 08:50:11 AM 38.6922 -77.4775 195° South 271 312 10,400 3,231 Climbing Washington Center
Sun 08:51:13 AM 38.6147 -77.4994 192° South 283 326 14,000 3,550 Climbing Washington Center
Sun 08:52:00 AM 38.4279 -77.5885 185° South  Level Estimated
Sun 08:52:11 AM 38.5372 -77.5267 195° South 283 326 17,500  Level Washington Center
Sun 08:53:11 AM 38.4533 -77.5483 191° South 294 338 20,700 1,721 Climbing Washington Center
Sun 08:54:13 AM 38.3861 -77.5836 202° Southwest 294 338 21,000 300 Climbing Washington Center
Sun 08:55:11 AM 38.3306 -77.6589 227° Southwest 286 329 21,300 655 Climbing Washington Center
Sun 08:56:12 AM 38.2583 -77.7361 220° Southwest 312 359 22,300 992 Climbing Washington Center
Sun 08:57:12 AM 38.1797 -77.8186 220° Southwest 345 397 23,300 1,008 Climbing Washington Center
Sun 08:58:11 AM 38.1011 -77.9006 219° Southwest 365 420 24,300 1,008 Climbing Washington Center
Sun 08:59:11 AM 38.0244 -77.9800 219° Southwest 365 420 25,300 1,041 Climbing Washington Center
Sun 09:00:12 AM 37.9497 -78.0567 219° Southwest 358 412 26,400 1,041 Climbing Washington Center
Sun 09:01:12 AM 37.8711 -78.1356 218° Southwest 364 419 27,400 1,008 Climbing Washington Center
Sun 09:02:11 AM 37.7961 -78.2197 222° Southwest 364 419 28,400 1,150 Climbing Washington Center
Sun 09:03:12 AM 37.7194 -78.2986 219° Southwest 364 419 29,700 1,350 Climbing Washington Center
Sun 09:04:11 AM 37.6425 -78.3797 220° Southwest 364 419 31,100 1,412 Climbing Washington Center
Sun 09:05:11 AM 37.5656 -78.4556 218° Southwest 359 413 32,500 1,426 Climbing Washington Center
Sun 09:06:13 AM 37.4906 -78.5339 220° Southwest 359 413 34,000 1,361 Climbing Washington Center
Sun 09:07:10 AM 37.4158 -78.6094 219° Southwest 359 413 35,200 1,068 Climbing Washington Center
Sun 09:08:11 AM 37.3322 -78.6950 219° Southwest 359 413 36,100 1,033 Climbing Washington Center
Sun 09:09:12 AM 37.2550 -78.7700 218° Southwest 359 413 37,300 934 Climbing Washington Center
Sun 09:10:13 AM 37.1800 -78.8478 220° Southwest 359 413 38,000 353 Climbing Washington Center
Sun 09:11:11 AM 37.1008 -78.9250 218° Southwest 359 413 38,000  Level Washington Center
Sun 09:12:13 AM 37.0233 -79.0075 220° Southwest 359 413 38,000  Level Washington Center
Sun 09:13:11 AM 36.9461 -79.0822 218° Southwest 359 413 38,000  Level Washington Center
Sun 09:14:12 AM 36.8686 -79.1617 219° Southwest 359 413 38,000  Level Washington Center
Sun 09:15:13 AM 36.7933 -79.2336 217° Southwest 359 413 38,000  Level Washington Center
Sun 09:16:11 AM 36.7181 -79.3128 220° Southwest 359 413 38,000  Level Washington Center
Sun 09:17:11 AM 36.6361 -79.3917 218° Southwest 364 419 38,000  Level Washington Center
Sun 09:18:12 AM 36.5564 -79.4706 218° Southwest 364 419 38,000  Level Washington Center
Sun 09:19:54 AM 36.4183 -79.6064 218° Southwest 372 428 38,000  Level Atlanta Center
Sun 09:20:54 AM 36.3356 -79.6856 218° Southwest 377 434 38,000  Level Atlanta Center
Sun 09:21:54 AM 36.2550 -79.7647 218° Southwest 382 440 38,000  Level Atlanta Center
Sun 09:22:54 AM 36.1744 -79.8461 219° Southwest 382 440 38,000  Level Atlanta Center
Sun 09:23:54 AM 36.0936 -79.9247 218° Southwest 382 440 38,000  Level Atlanta Center
Sun 09:24:54 AM 35.9894 -79.9917 207° Southwest 382 440 38,000  Level Atlanta Center
Sun 09:25:54 AM 35.8822 -80.0278 195° South 394 453 38,000  Level Atlanta Center
Sun 09:26:54 AM 35.7708 -80.0667 196° South 400 460 38,000  Level Atlanta Center
Sun 09:27:54 AM 35.6842 -80.0939 194° South 400 460 38,000  Level Atlanta Center
Sun 09:28:54 AM 35.5664 -80.1325 195° South 405 466 38,000  Level Atlanta Center
Sun 09:29:54 AM 35.4569 -80.1683 195° South 410 472 38,000  Level Atlanta Center
Sun 09:30:54 AM 35.3517 -80.2039 195° South 410 472 38,000  Level Atlanta Center
Sun 09:31:54 AM 35.2422 -80.2369 194° South 405 466 38,000  Level Atlanta Center
Sun 09:33:29 AM 35.0717 -80.2931 195° South 408 470 38,000  Level Jacksonville Center
Sun 09:34:29 AM 34.9639 -80.3242 193° South 402 463 38,000  Level Jacksonville Center
Sun 09:35:29 AM 34.8542 -80.3653 197° South 397 457 38,000  Level Jacksonville Center
Sun 09:36:29 AM 34.7442 -80.3989 194° South 396 456 38,000  Level Jacksonville Center
Sun 09:37:29 AM 34.6344 -80.4350 195° South 396 456 38,000  Level Jacksonville Center
Sun 09:38:29 AM 34.5286 -80.4656 193° South 396 456 38,000  Level Jacksonville Center
Sun 09:39:29 AM 34.4208 -80.4989 194° South 396 456 38,000  Level Jacksonville Center
Sun 09:40:29 AM 34.3131 -80.5344 195° South 396 456 38,000  Level Jacksonville Center
Sun 09:41:29 AM 34.2094 -80.5675 195° South 396 456 38,000  Level Jacksonville Center
Sun 09:42:29 AM 34.0994 -80.6056 196° South 396 456 38,000  Level Jacksonville Center
Sun 09:43:29 AM 33.9936 -80.6358 193° South 396 456 38,000  Level Jacksonville Center
Sun 09:44:29 AM 33.8878 -80.6686 194° South 396 456 38,000  Level Jacksonville Center
Sun 09:45:29 AM 33.7800 -80.7036 195° South 396 456 38,000  Level Jacksonville Center
Sun 09:46:29 AM 33.6739 -80.7364 194° South 396 456 38,000  Level Jacksonville Center
Sun 09:47:29 AM 33.5661 -80.7689 194° South 396 456 38,000  Level Jacksonville Center
Sun 09:48:29 AM 33.4603 -80.8039 195° South 396 456 38,000  Level Jacksonville Center
Sun 09:49:29 AM 33.3500 -80.8361 194° South 396 456 38,000  Level Jacksonville Center
Sun 09:50:29 AM 33.2356 -80.8511 186° South 401 461 38,000  Level Jacksonville Center
Sun 09:51:29 AM 33.1231 -80.8611 184° South 412 474 38,000  Level Jacksonville Center
Sun 09:52:29 AM 33.0189 -80.8736 186° South 412 474 38,000  Level Jacksonville Center
Sun 09:53:29 AM 32.9064 -80.8883 186° South 412 474 38,000  Level Jacksonville Center
Sun 09:54:29 AM 32.7939 -80.9008 185° South 412 474 38,000  Level Jacksonville Center
Sun 09:55:29 AM 32.6792 -80.9156 186° South 412 474 38,000  Level Jacksonville Center
Sun 09:56:29 AM 32.5667 -80.9281 185° South 412 474 38,000  Level Jacksonville Center
Sun 09:57:29 AM 32.4564 -80.9428 186° South 407 468 38,000  Level Jacksonville Center
Sun 09:58:29 AM 32.3333 -80.9550 185° South 402 463 38,000  Level Jacksonville Center
Sun 09:59:29 AM 32.2333 -80.9672 186° South 410 472 38,000  Level Jacksonville Center
Sun 10:00:29 AM 32.1103 -80.9794 185° South 408 470 38,000  Level Jacksonville Center
Sun 10:01:29 AM 31.9956 -80.9917 185° South 408 470 38,000  Level Jacksonville Center
Sun 10:02:29 AM 31.8936 -81.0061 187° South 408 470 38,000  Level Jacksonville Center
Sun 10:03:29 AM 31.7706 -81.0206 186° South 408 470 38,000  Level Jacksonville Center
Sun 10:04:29 AM 31.6581 -81.0353 186° South 408 470 38,000  Level Jacksonville Center
Sun 10:05:29 AM 31.5581 -81.0469 186° South 407 468 38,000  Level Jacksonville Center
Sun 10:06:29 AM 31.4328 -81.0422 178° South 407 468 38,000  Level Jacksonville Center
Sun 10:07:29 AM 31.3133 -81.0250 173° South 421 484 38,000  Level Jacksonville Center
Sun 10:08:29 AM 31.1983 -81.0103 174° South 427 491 38,000  Level Jacksonville Center
Sun 10:09:29 AM 31.0814 -80.9956 174° South 422 486 38,000  Level Jacksonville Center
Sun 10:10:29 AM 30.9661 -80.9786 173° South 422 486 38,000  Level Jacksonville Center
Sun 10:11:29 AM 30.8492 -80.9639 174° South 427 491 38,000  Level Jacksonville Center
Sun 10:12:29 AM 30.7319 -80.9472 173° South 427 491 38,000  Level Jacksonville Center
Sun 10:13:29 AM 30.6169 -80.9325 174° South 427 491 38,000  Level Jacksonville Center
Sun 10:14:29 AM 30.5017 -80.9156 173° South 427 491 38,000  Level Jacksonville Center
Sun 10:15:29 AM 30.3825 -80.9011 174° South 427 491 38,000  Level Jacksonville Center
Sun 10:16:29 AM 30.2675 -80.8844 173° South 427 491 38,000  Level Jacksonville Center
Sun 10:17:29 AM 30.1481 -80.8700 174° South 427 491 38,000  Level Jacksonville Center
Sun 10:18:29 AM 30.0331 -80.8533 173° South 422 486 38,000  Level Jacksonville Center
Sun 10:19:29 AM 29.9158 -80.8367 173° South 422 486 38,000  Level Jacksonville Center
Sun 10:20:29 AM 29.7989 -80.8222 174° South 422 486 38,000 -50 Level Jacksonville Center
Sun 10:21:29 AM 29.6817 -80.8081 174° South 422 486 37,900 -377 Descending Jacksonville Center
Sun 10:23:40 AM 29.4342 -80.7778 174° South 420 483 36,800 -597 Descending Miami Center
Sun 10:24:40 AM 29.3178 -80.7664 175° South 421 484 36,000 -400 Descending Miami Center
Sun 10:25:40 AM 29.1992 -80.7478 172° South 426 490 36,000  Level Miami Center
Sun 10:26:40 AM 29.0831 -80.7294 172° South 426 490 36,000  Level Miami Center
Sun 10:27:41 AM 28.9644 -80.7136 173° South 426 490 36,000  Level Miami Center
Sun 10:28:40 AM 28.8628 -80.6981 172° South 419 482 36,000  Level Miami Center
Sun 10:29:41 AM 28.7422 -80.6819 173° South 428 493 36,000 -992 Level Miami Center
Sun 10:30:41 AM 28.6167 -80.6139 155° Southeast 435 501 34,000 -2,100 Descending Miami Center
Sun 10:31:41 AM 28.5103 -80.5394 148° Southeast 445 512 31,800 -2,350 Descending Miami Center
Sun 10:32:41 AM 28.4036 -80.4628 148° Southeast 457 526 29,300 -2,500 Descending Miami Center
Sun 10:33:41 AM 28.3072 -80.3936 148° Southeast 463 533 26,800 -2,450 Descending Miami Center
Sun 10:34:41 AM 28.1914 -80.3500 162° South 447 514 24,400 -2,521 Descending Miami Center
Sun 10:35:40 AM 28.0628 -80.3178 168° South 432 497 21,800 -2,350 Descending Miami Center
Sun 10:36:41 AM 27.9528 -80.2886 167° South 422 486 19,700 -2,430 Descending Miami Center
Sun 10:37:41 AM 27.8428 -80.2619 168° South 414 476 16,900 -2,850 Descending Miami Center
Sun 10:38:41 AM 27.7494 -80.2403 168° South 401 461 14,000 -2,218 Descending Miami Center
Sun 10:39:40 AM 27.6497 -80.2164 168° South 384 442 12,500 -1,311 Descending Miami Center
Sun 10:40:40 AM 27.5397 -80.1872 167° South 367 422 11,400 -1,041 Descending Miami Center
Sun 10:41:41 AM 27.4464 -80.1658 169° South 362 417 10,400 -694 Descending Miami Center
Sun 10:42:41 AM 27.3569 -80.1447 168° South 344 396 10,000 -200 Descending Miami Center
Sun 10:43:41 AM 27.2864 -80.1333 172° South 308 354 10,000 -400 Level Miami Center
Sun 10:44:41 AM 27.2097 -80.1100 165° South 290 334 9,200 -900 Descending Miami Center
Sun 10:45:41 AM 27.1311 -80.0728 157° South 280 322 8,200 -1,000 Descending Miami Center
Sun 10:46:41 AM 27.0542 -80.0519 166° South 280 322 7,200 -1,000 Descending Miami Center
Sun 10:47:41 AM 26.9794 -80.0361 169° South 280 322 6,200 -950 Descending Miami Center
Sun 10:48:41 AM 26.9128 -80.0225 170° South 274 315 5,300 -1,000 Descending Miami Center
Sun 10:49:41 AM 26.8536 -79.9697 141° Southeast 254 292 4,200 -1,100 Descending Miami Center
Sun 10:51:00 AM 26.7386 -80.0547 265° West  Level Estimated
Sun 10:58:00 AM 26.6832 -80.0956 110° East  Level Estimated
Sun 10:59:00 AM 26.6832 -80.0956 110° East  Level Estimated
Sun 11:00:00 AM 26.6832 -80.0956 110° East  Level Estimated
Sun 11:01:00 AM 26.6832 -80.0956 110° East  Level Estimated
Sun 11:02:00 AM 26.6832 -80.0956 110° East  Level Estimated
Sun 11:03:00 AM 26.6832 -80.0956 110° East  Level Estimated
Sun 11:04:00 AM 26.6832 -80.0956 110° East  Level Estimated

Login

Don't have an account? Register now (free) for customized features, flight alerts, and more!